Time;durP1;ratioP1;P1;durP2;ratioP2;P2;SDS_P1;SDS_P2;PMS_P1;PMS_P2;Temp;Humidity;BMP_temperature;BMP_pressure;BME280_temperature;BME280_humidity;BME280_pressure;Samples;Min_cycle;Max_cycle;Signal;HPM_P1;HPM_P2
2022/09/16 00:00:50;;;;;;;12.05;5.82;;;;;;;12.80;100.00;95701.75;5036478;28;20208;-71
2022/09/16 00:03:17;;;;;;;10.40;5.70;;;;;;;12.86;100.00;95701.75;5035689;28;20292;-72
2022/09/16 00:05:45;;;;;;;14.33;6.00;;;;;;;12.94;100.00;95700.75;5035599;28;20255;-72
2022/09/16 00:08:12;;;;;;;17.67;6.07;;;;;;;12.82;100.00;95695.22;5036974;28;20602;-71
2022/09/16 00:10:39;;;;;;;11.70;5.85;;;;;;;12.85;100.00;95694.00;5036115;28;20201;-71
2022/09/16 00:13:07;;;;;;;10.07;5.38;;;;;;;12.81;100.00;95698.88;5033806;28;20539;-72
2022/09/16 00:15:33;;;;;;;12.20;5.90;;;;;;;12.82;100.00;95694.44;5035833;28;20235;-72
2022/09/16 00:17:59;;;;;;;8.98;5.25;;;;;;;12.79;100.00;95700.09;5036809;28;20228;-71
2022/09/16 00:20:26;;;;;;;7.43;4.47;;;;;;;12.71;100.00;95692.38;5035923;28;20200;-71
2022/09/16 00:22:53;;;;;;;7.38;3.95;;;;;;;12.76;100.00;95695.22;5035481;28;20205;-72
2022/09/16 00:25:20;;;;;;;12.48;4.97;;;;;;;12.74;100.00;95696.44;5037428;28;21251;-72
2022/09/16 00:27:48;;;;;;;9.00;4.60;;;;;;;12.84;100.00;95695.03;5034379;28;20217;-71
2022/09/16 00:30:15;;;;;;;10.32;4.95;;;;;;;12.77;100.00;95691.56;5036113;28;20201;-72
2022/09/16 00:32:41;;;;;;;13.95;5.72;;;;;;;12.84;100.00;95689.72;5036002;28;20733;-71
2022/09/16 00:35:08;;;;;;;10.60;5.55;;;;;;;12.89;100.00;95695.25;5036510;28;20225;-72
2022/09/16 00:37:34;;;;;;;11.40;5.35;;;;;;;12.89;100.00;95696.09;5035676;28;20225;-72
2022/09/16 00:40:01;;;;;;;8.65;5.05;;;;;;;12.91;100.00;95694.03;5036677;28;20208;-71
2022/09/16 00:42:28;;;;;;;8.50;4.82;;;;;;;12.90;100.00;95689.75;5035697;28;20216;-71
2022/09/16 00:44:58;;;;;;;16.55;5.43;;;;;;;12.99;100.00;95691.19;5035707;28;20704;-72
2022/09/16 00:47:31;;;;;;;11.77;5.82;;;;;;;13.09;100.00;95688.94;5036241;28;20201;-72
2022/09/16 00:50:06;;;;;;;10.52;5.75;;;;;;;13.07;100.00;95688.34;5035960;28;20220;-71
2022/09/16 00:52:33;;;;;;;11.80;6.15;;;;;;;13.09;100.00;95690.78;5035053;28;20208;-71
2022/09/16 00:55:03;;;;;;;13.57;6.43;;;;;;;13.12;100.00;95685.06;5036497;28;20205;-71
2022/09/16 00:57:30;;;;;;;12.13;5.60;;;;;;;13.13;100.00;95690.16;5034798;28;20228;-71
2022/09/16 01:00:00;;;;;;;10.23;6.15;;;;;;;13.23;100.00;95692.41;5036005;28;20258;-72
2022/09/16 01:02:27;;;;;;;12.73;6.50;;;;;;;13.28;100.00;95692.59;5035217;28;20634;-72
2022/09/16 01:04:57;;;;;;;12.93;6.35;;;;;;;13.26;100.00;95690.13;5036083;28;20214;-72
2022/09/16 01:07:31;;;;;;;14.50;6.40;;;;;;;13.30;100.00;95682.59;5035602;28;20235;-72
2022/09/16 01:09:57;;;;;;;11.30;6.50;;;;;;;13.18;100.00;95686.91;5035851;28;20292;-71
2022/09/16 01:12:26;;;;;;;11.48;6.20;;;;;;;13.23;100.00;95685.25;5033298;28;20267;-71
2022/09/16 01:14:53;;;;;;;14.50;6.50;;;;;;;13.17;100.00;95688.72;5036186;28;20275;-72
2022/09/16 01:17:33;;;;;;;13.07;6.75;;;;;;;13.22;100.00;95685.47;5035374;28;20228;-72
2022/09/16 01:20:27;;;;;;;12.98;7.10;;;;;;;13.26;100.00;95681.38;5035432;28;20212;-71
2022/09/16 01:23:10;;;;;;;11.30;6.50;;;;;;;13.27;100.00;95685.66;5034234;28;20731;-72
2022/09/16 01:25:49;;;;;;;12.18;6.63;;;;;;;13.29;100.00;95680.97;5035025;28;20208;-71
2022/09/16 01:28:44;;;;;;;16.55;6.50;;;;;;;13.35;100.00;95686.25;5035468;28;20217;-72
2022/09/16 01:31:17;;;;;;;13.20;6.70;;;;;;;13.38;100.00;95689.28;5035389;28;20205;-71
2022/09/16 01:33:57;;;;;;;10.38;6.10;;;;;;;13.48;100.00;95684.38;5034675;28;20205;-72
2022/09/16 01:36:36;;;;;;;15.63;6.90;;;;;;;13.50;100.00;95682.38;5036195;28;20632;-72
2022/09/16 01:39:17;;;;;;;15.60;6.70;;;;;;;13.44;100.00;95685.84;5038533;28;20221;-71
2022/09/16 01:41:56;;;;;;;16.30;6.75;;;;;;;13.37;100.00;95691.34;5039250;28;20209;-72
2022/09/16 01:44:27;;;;;;;11.90;6.70;;;;;;;13.32;100.00;95688.50;5039972;28;20208;-71
2022/09/16 01:47:02;;;;;;;13.85;6.45;;;;;;;13.42;100.00;95687.06;5039366;28;20221;-72
2022/09/16 01:49:39;;;;;;;13.07;6.88;;;;;;;13.38;100.00;95688.50;5038325;28;20231;-71
2022/09/16 01:52:17;;;;;;;12.07;6.20;;;;;;;13.46;100.00;95690.91;5038839;28;20204;-71
2022/09/16 01:54:48;;;;;;;11.55;6.60;;;;;;;13.44;100.00;95685.00;5039150;28;20209;-72
2022/09/16 01:57:21;;;;;;;13.88;6.95;;;;;;;13.43;100.00;95684.19;5038411;28;20221;-71
2022/09/16 01:59:54;;;;;;;10.20;5.75;;;;;;;13.40;100.00;95695.22;5038794;28;20205;-71
2022/09/16 02:02:25;;;;;;;15.73;6.68;;;;;;;13.38;100.00;95685.84;5038444;28;20208;-72
2022/09/16 02:04:55;;;;;;;11.05;6.20;;;;;;;13.37;100.00;95686.06;5038426;28;20291;-73
2022/09/16 02:07:29;;;;;;;13.35;6.45;;;;;;;13.38;100.00;95681.34;5038599;28;20673;-72
2022/09/16 02:10:03;;;;;;;13.20;6.38;;;;;;;13.34;100.00;95678.50;5038621;28;20201;-71
2022/09/16 02:12:34;;;;;;;14.27;6.35;;;;;;;13.32;100.00;95681.38;5035935;28;20212;-71
2022/09/16 02:15:05;;;;;;;13.00;6.03;;;;;;;13.32;100.00;95681.38;5038394;28;20197;-71
2022/09/16 02:17:38;;;;;;;12.10;6.38;;;;;;;13.26;100.00;95684.03;5038479;28;20235;-73
2022/09/16 02:20:08;;;;;;;11.57;6.40;;;;;;;13.24;100.00;95675.47;5035886;28;20621;-71
2022/09/16 02:22:39;;;;;;;13.32;6.47;;;;;;;13.27;100.00;95678.53;5037469;28;20205;-71
2022/09/16 02:25:08;;;;;;;11.05;6.15;;;;;;;13.20;100.00;95682.19;5038712;28;20998;-72
2022/09/16 02:27:37;;;;;;;10.45;5.90;;;;;;;13.24;100.00;95680.75;5038466;28;21078;-72
2022/09/16 02:30:06;;;;;;;12.10;6.13;;;;;;;13.24;100.00;95678.13;5037937;28;20212;-72
2022/09/16 02:32:39;;;;;;;11.10;6.15;;;;;;;13.30;100.00;95682.59;5037874;28;20197;-72
2022/09/16 02:35:09;;;;;;;10.90;6.30;;;;;;;13.34;100.00;95673.22;5038256;28;20201;-72
2022/09/16 02:37:42;;;;;;;11.30;6.07;;;;;;;13.30;100.00;95679.94;5037846;28;20236;-71
2022/09/16 02:40:14;;;;;;;12.40;5.70;;;;;;;13.30;100.00;95678.13;5038058;28;20201;-72
2022/09/16 02:42:41;;;;;;;13.00;6.63;;;;;;;13.16;100.00;95673.88;5037910;28;20216;-72
2022/09/16 02:45:09;;;;;;;17.30;6.55;;;;;;;13.21;100.00;95678.53;5037732;28;20204;-72
2022/09/16 02:47:46;;;;;;;14.40;6.63;;;;;;;13.23;100.00;95679.16;5038214;28;20224;-72
2022/09/16 02:50:17;;;;;;;17.85;6.70;;;;;;;13.21;100.00;95683.84;5036980;28;20689;-72
2022/09/16 02:52:48;;;;;;;14.90;6.85;;;;;;;13.02;100.00;95684.66;5036838;28;20324;-71
2022/09/16 02:55:25;;;;;;;16.02;6.68;;;;;;;13.16;100.00;95687.13;5037448;28;20399;-72
2022/09/16 02:57:52;;;;;;;11.55;6.72;;;;;;;13.03;100.00;95681.00;5038682;28;20224;-71
2022/09/16 03:00:19;;;;;;;12.73;6.65;;;;;;;12.99;100.00;95677.97;5037602;28;20201;-73
2022/09/16 03:02:47;;;;;;;11.98;7.03;;;;;;;13.04;100.00;95678.16;5036787;28;20212;-71
2022/09/16 03:05:13;;;;;;;11.57;6.57;;;;;;;12.93;100.00;95675.31;5037523;28;20204;-72
2022/09/16 03:07:42;;;;;;;16.20;6.65;;;;;;;13.02;100.00;95676.72;5037703;28;20213;-73
2022/09/16 03:10:10;;;;;;;13.10;6.68;;;;;;;12.96;100.00;95674.94;5037244;28;20206;-71
2022/09/16 03:12:55;;;;;;;11.97;6.70;;;;;;;13.08;100.00;95678.56;5034744;28;20205;-71
2022/09/16 03:15:33;;;;;;;11.13;6.35;;;;;;;12.96;100.00;95672.28;5037112;28;20232;-72
2022/09/16 03:18:15;;;;;;;12.55;6.60;;;;;;;12.95;100.00;95678.59;5037055;28;20229;-72
2022/09/16 03:20:51;;;;;;;11.32;6.95;;;;;;;12.96;100.00;95680.22;5037247;28;20203;-71
2022/09/16 03:23:29;;;;;;;12.15;6.68;;;;;;;12.92;100.00;95679.81;5036279;28;20212;-71
2022/09/16 03:26:03;;;;;;;20.25;7.00;;;;;;;12.87;100.00;95679.59;5037023;28;21389;-72
2022/09/16 03:28:38;;;;;;;15.13;6.78;;;;;;;12.84;100.00;95681.81;5037398;28;20212;-72
2022/09/16 03:31:09;;;;;;;14.57;6.10;;;;;;;12.88;100.00;95675.13;5037013;28;20196;-72
2022/09/16 03:33:45;;;;;;;11.93;6.77;;;;;;;12.90;100.00;95667.81;5036704;28;20212;-72
2022/09/16 03:36:15;;;;;;;13.77;6.78;;;;;;;12.79;100.00;95668.38;5036931;28;20579;-71
2022/09/16 03:38:43;;;;;;;14.70;6.57;;;;;;;12.84;100.00;95671.22;5037225;28;20225;-71
2022/09/16 03:41:11;;;;;;;14.63;6.93;;;;;;;12.78;100.00;95670.22;5036480;28;20208;-72
2022/09/16 03:43:37;;;;;;;22.83;10.40;;;;;;;12.76;100.00;95665.34;5036440;28;20201;-72
2022/09/16 03:46:09;;;;;;;18.90;9.07;;;;;;;12.76;100.00;95663.50;5037225;28;20201;-72
2022/09/16 03:48:37;;;;;;;25.98;11.63;;;;;;;12.78;100.00;95664.94;5036515;28;20225;-72
2022/09/16 03:51:03;;;;;;;21.50;10.27;;;;;;;12.72;100.00;95657.00;5037203;28;20212;-72
2022/09/16 03:53:30;;;;;;;21.45;10.77;;;;;;;12.70;100.00;95659.03;5035709;28;20337;-72
2022/09/16 03:55:56;;;;;;;23.13;10.32;;;;;;;12.73;100.00;95658.63;5036754;28;20204;-72
2022/09/16 03:58:23;;;;;;;18.50;9.43;;;;;;;12.73;100.00;95663.94;5036830;28;20232;-71
2022/09/16 04:00:50;;;;;;;13.75;7.53;;;;;;;12.73;100.00;95666.56;5036670;28;20216;-70
2022/09/16 04:03:17;;;;;;;15.60;8.67;;;;;;;12.76;100.00;95675.94;5035376;28;20673;-71
2022/09/16 04:05:45;;;;;;;15.03;7.70;;;;;;;12.85;100.00;95670.22;5036886;28;20208;-71
2022/09/16 04:08:12;;;;;;;16.70;9.00;;;;;;;12.83;100.00;95666.97;5036429;28;20220;-71
2022/09/16 04:10:38;;;;;;;16.63;8.38;;;;;;;12.84;100.00;95674.69;5036251;28;20201;-71
2022/09/16 04:13:05;;;;;;;18.83;8.52;;;;;;;12.89;100.00;95672.28;5033554;28;20201;-72
2022/09/16 04:15:31;;;;;;;18.85;8.90;;;;;;;12.83;100.00;95678.34;5036908;28;20212;-72
2022/09/16 04:17:59;;;;;;;16.42;8.13;;;;;;;12.69;100.00;95670.63;5036113;28;20235;-71
2022/09/16 04:20:26;;;;;;;21.20;7.78;;;;;;;12.78;100.00;95666.78;5036187;28;20211;-72
2022/09/16 04:22:54;;;;;;;15.90;8.45;;;;;;;12.82;100.00;95675.91;5035482;28;20688;-71
2022/09/16 04:25:20;;;;;;;17.73;8.65;;;;;;;12.75;100.00;95666.38;5036303;28;20220;-72
2022/09/16 04:27:46;;;;;;;17.47;8.20;;;;;;;12.77;100.00;95665.13;5036011;28;20249;-72
2022/09/16 04:30:13;;;;;;;24.92;8.65;;;;;;;12.76;100.00;95661.66;5035674;28;20209;-73
2022/09/16 04:32:40;;;;;;;15.93;8.23;;;;;;;12.78;100.00;95664.13;5035366;28;20205;-72
2022/09/16 04:35:07;;;;;;;16.30;7.70;;;;;;;12.76;100.00;95661.66;5036071;28;20202;-72
2022/09/16 04:37:33;;;;;;;19.35;8.77;;;;;;;12.79;100.00;95663.09;5036550;28;20236;-72
2022/09/16 04:40:02;;;;;;;17.33;8.65;;;;;;;12.95;100.00;95662.72;5036282;28;20212;-72
2022/09/16 04:42:28;;;;;;;16.40;8.63;;;;;;;12.88;100.00;95660.09;5035750;28;20205;-74
2022/09/16 04:44:55;;;;;;;17.67;8.82;;;;;;;12.96;100.00;95661.72;5036204;28;20204;-73
2022/09/16 04:47:21;;;;;;;15.05;7.82;;;;;;;12.98;100.00;95662.28;5036578;28;20197;-72
2022/09/16 04:49:48;;;;;;;17.83;8.30;;;;;;;13.00;100.00;95665.56;5035815;28;20213;-72
2022/09/16 04:52:14;;;;;;;20.45;8.73;;;;;;;13.02;100.00;95664.34;5035600;28;20259;-72
2022/09/16 04:54:41;;;;;;;20.90;8.63;;;;;;;13.05;100.00;95657.84;5035653;28;20201;-72
2022/09/16 04:57:08;;;;;;;18.85;8.00;;;;;;;13.18;100.00;95663.09;5036373;28;20581;-72
2022/09/16 04:59:35;;;;;;;15.77;7.95;;;;;;;13.11;100.00;95649.06;5034547;28;20229;-72
2022/09/16 05:02:01;;;;;;;11.90;7.18;;;;;;;13.07;100.00;95651.31;5035976;28;20208;-73
2022/09/16 05:04:28;;;;;;;14.02;7.43;;;;;;;13.12;100.00;95659.44;5035531;28;20201;-72
2022/09/16 05:06:54;;;;;;;14.82;7.63;;;;;;;13.13;100.00;95658.41;5036053;28;20543;-73
2022/09/16 05:09:21;;;;;;;16.52;7.35;;;;;;;13.16;100.00;95654.53;5035792;28;20217;-74
2022/09/16 05:11:48;;;;;;;14.85;8.13;;;;;;;13.22;100.00;95664.31;5033488;28;20205;-73
2022/09/16 05:14:17;;;;;;;16.63;8.68;;;;;;;13.33;100.00;95661.84;5039359;28;20215;-73
2022/09/16 05:16:45;;;;;;;18.13;7.93;;;;;;;13.30;100.00;95664.06;5039680;28;20576;-73
2022/09/16 05:19:12;;;;;;;15.48;7.35;;;;;;;13.35;100.00;95661.63;5039913;28;20235;-72
2022/09/16 05:21:40;;;;;;;21.35;8.48;;;;;;;13.35;100.00;95669.56;5039914;28;20247;-73
2022/09/16 05:24:08;;;;;;;16.33;8.07;;;;;;;13.38;100.00;95669.13;5039061;28;21054;-72
2022/09/16 05:26:37;;;;;;;15.95;7.63;;;;;;;13.38;100.00;95668.13;5039328;28;20205;-72
2022/09/16 05:29:06;;;;;;;19.67;7.82;;;;;;;13.49;100.00;95666.66;5039880;28;20217;-72
2022/09/16 05:31:36;;;;;;;16.42;7.20;;;;;;;13.57;100.00;95656.66;5039681;28;20197;-72
2022/09/16 05:34:04;;;;;;;19.27;8.57;;;;;;;13.62;100.00;95654.22;5039797;28;20564;-72
2022/09/16 05:36:33;;;;;;;15.68;7.03;;;;;;;13.68;100.00;95656.03;5039473;28;20200;-72
2022/09/16 05:39:01;;;;;;;16.38;7.85;;;;;;;13.69;100.00;95656.84;5038947;28;20987;-74
2022/09/16 05:41:28;;;;;;;14.02;8.23;;;;;;;13.69;100.00;95657.63;5039154;28;20207;-72
2022/09/16 05:43:56;;;;;;;14.50;7.82;;;;;;;13.68;100.00;95653.38;5039546;28;20211;-72
2022/09/16 05:46:23;;;;;;;16.60;7.93;;;;;;;13.75;100.00;95646.22;5039959;28;20205;-72
2022/09/16 05:48:51;;;;;;;20.52;8.88;;;;;;;13.84;100.00;95655.53;5039871;28;20230;-72
2022/09/16 05:51:20;;;;;;;21.73;9.43;;;;;;;13.82;100.00;95654.94;5038895;28;20205;-72
2022/09/16 05:53:48;;;;;;;22.25;9.23;;;;;;;13.79;100.00;95643.97;5038193;28;20209;-72
2022/09/16 05:56:16;;;;;;;18.50;8.90;;;;;;;13.86;100.00;95627.03;5040025;28;20574;-72
2022/09/16 05:58:43;;;;;;;19.88;8.75;;;;;;;13.78;100.00;95629.88;5039136;28;20885;-72
2022/09/16 06:01:12;;;;;;;23.40;9.85;;;;;;;13.88;100.00;95646.16;5038974;28;20197;-72
2022/09/16 06:03:40;;;;;;;14.95;8.82;;;;;;;13.92;100.00;95635.94;5038280;28;20198;-72
2022/09/16 06:06:13;;;;;;;17.65;8.52;;;;;;;13.98;100.00;95637.75;5038397;28;20205;-72
2022/09/16 06:08:40;;;;;;;17.23;8.25;;;;;;;14.06;100.00;95644.44;5038615;28;20220;-72
2022/09/16 06:11:09;;;;;;;18.60;8.75;;;;;;;14.17;100.00;95637.69;5037075;28;20216;-72
2022/09/16 06:13:36;;;;;;;16.42;9.23;;;;;;;14.20;100.00;95650.50;5037822;28;20642;-72
2022/09/16 06:16:05;;;;;;;15.75;8.70;;;;;;;14.19;100.00;95648.84;5038949;28;20209;-72
2022/09/16 06:18:32;;;;;;;13.88;7.75;;;;;;;14.17;100.00;95650.94;5038099;28;20315;-73
2022/09/16 06:20:58;;;;;;;18.80;8.65;;;;;;;14.08;100.00;95646.91;5038953;28;20206;-73
2022/09/16 06:23:26;;;;;;;15.32;7.70;;;;;;;14.17;100.00;95632.38;5037287;28;20572;-73
2022/09/16 06:25:59;;;;;;;14.75;7.88;;;;;;;14.27;100.00;95630.09;5038202;28;20208;-72
2022/09/16 06:28:26;;;;;;;18.30;8.90;;;;;;;14.14;100.00;95622.19;5038878;28;20712;-72
2022/09/16 06:31:01;;;;;;;15.70;8.07;;;;;;;14.31;100.00;95625.97;5038275;28;20201;-72
2022/09/16 06:33:28;;;;;;;21.75;8.60;;;;;;;14.28;100.00;95629.03;5037871;28;20197;-73
2022/09/16 06:35:55;;;;;;;16.20;8.27;;;;;;;14.32;100.00;95623.09;5038207;28;20212;-73
2022/09/16 06:38:22;;;;;;;15.75;8.77;;;;;;;14.42;100.00;95622.63;5037694;28;20707;-72
2022/09/16 06:40:50;;;;;;;19.10;9.98;;;;;;;14.56;100.00;95627.63;5038110;28;20201;-72
2022/09/16 06:43:17;;;;;;;17.45;9.05;;;;;;;14.57;100.00;95623.91;5037244;28;20259;-73
2022/09/16 06:45:43;;;;;;;14.90;8.27;;;;;;;14.64;100.00;95619.41;5038484;28;20220;-72
2022/09/16 06:48:10;;;;;;;16.05;7.55;;;;;;;14.59;100.00;95623.69;5037499;28;20224;-72
2022/09/16 06:50:36;;;;;;;14.68;7.55;;;;;;;14.55;100.00;95627.81;5038632;28;20216;-73
2022/09/16 06:53:03;;;;;;;21.48;7.55;;;;;;;14.65;100.00;95626.31;5037184;28;20197;-72
2022/09/16 06:55:29;;;;;;;16.70;6.75;;;;;;;15.00;100.00;95627.44;5037809;28;20198;-72
2022/09/16 06:57:57;;;;;;;10.68;6.00;;;;;;;15.19;100.00;95629.91;5037627;28;20332;-72
2022/09/16 07:00:24;;;;;;;22.23;7.70;;;;;;;15.44;100.00;95625.34;5039004;28;20890;-72
2022/09/16 07:02:50;;;;;;;13.63;7.03;;;;;;;15.62;100.00;95628.03;5036433;28;20701;-72
2022/09/16 07:05:17;;;;;;;16.55;6.68;;;;;;;15.85;100.00;95619.13;5037382;28;20994;-72
2022/09/16 07:07:43;;;;;;;17.65;6.95;;;;;;;15.84;100.00;95617.50;5037798;28;20225;-72
2022/09/16 07:10:10;;;;;;;19.23;7.53;;;;;;;15.97;100.00;95619.19;5037747;28;20193;-72
2022/09/16 07:12:36;;;;;;;15.77;8.35;;;;;;;15.55;100.00;95621.97;5033353;28;20206;-72
2022/09/16 07:15:05;;;;;;;15.20;7.43;;;;;;;15.43;100.00;95629.88;5037562;28;20217;-72
2022/09/16 07:17:31;;;;;;;14.77;6.80;;;;;;;15.53;100.00;95634.66;5037534;28;20224;-72
2022/09/16 07:19:58;;;;;;;15.98;7.75;;;;;;;15.40;100.00;95634.78;5036090;28;20256;-72
2022/09/16 07:22:24;;;;;;;17.77;8.02;;;;;;;15.26;100.00;95633.31;5037294;28;20198;-72
2022/09/16 07:24:51;;;;;;;19.92;8.55;;;;;;;15.00;100.00;95640.69;5036577;28;20202;-72
2022/09/16 07:27:17;;;;;;;18.98;8.05;;;;;;;15.05;100.00;95636.34;5037269;28;20201;-72
2022/09/16 07:29:43;;;;;;;16.00;8.40;;;;;;;14.85;100.00;95641.03;5036734;28;20205;-72
2022/09/16 07:32:11;;;;;;;14.48;8.05;;;;;;;14.84;100.00;95644.72;5037440;28;20575;-72
2022/09/16 07:34:38;;;;;;;17.05;8.38;;;;;;;14.68;100.00;95645.25;5035349;28;20579;-72
2022/09/16 07:37:04;;;;;;;19.55;8.90;;;;;;;14.61;100.00;95646.31;5033514;28;20426;-74
2022/09/16 07:39:31;;;;;;;19.35;9.20;;;;;;;14.58;100.00;95643.31;5037280;28;20383;-72
2022/09/16 07:41:57;;;;;;;25.05;10.77;;;;;;;14.42;100.00;95646.47;5035448;28;20204;-73
2022/09/16 07:44:25;;;;;;;21.73;10.40;;;;;;;14.33;100.00;95645.94;5035901;28;20213;-74
2022/09/16 07:46:52;;;;;;;17.88;9.02;;;;;;;14.47;100.00;95652.75;5035663;28;20197;-73
2022/09/16 07:49:19;;;;;;;20.42;9.13;;;;;;;14.74;100.00;95643.59;5036175;28;20225;-73
2022/09/16 07:51:46;;;;;;;19.42;10.52;;;;;;;14.95;100.00;95654.59;5035213;28;20209;-73
2022/09/16 07:54:14;;;;;;;23.42;10.43;;;;;;;15.11;100.00;95645.28;5035745;28;20201;-73
2022/09/16 07:56:42;;;;;;;23.80;10.60;;;;;;;15.22;100.00;95650.72;5034934;28;20239;-72
2022/09/16 07:59:13;;;;;;;18.73;8.80;;;;;;;15.26;100.00;95649.25;5037302;28;20229;-72
2022/09/16 08:01:39;;;;;;;22.52;8.45;;;;;;;14.92;100.00;95657.72;5038267;28;20197;-72
2022/09/16 08:04:06;;;;;;;16.58;8.35;;;;;;;14.94;100.00;95660.97;5037841;28;20201;-72
2022/09/16 08:06:37;;;;;;;15.52;8.50;;;;;;;14.94;100.00;95660.97;5037157;28;20201;-72
2022/09/16 08:09:04;;;;;;;17.38;7.88;;;;;;;14.65;100.00;95650.19;5036947;28;20216;-72
2022/09/16 08:11:31;;;;;;;18.30;7.22;;;;;;;14.71;100.00;95647.50;5037568;28;20205;-72
2022/09/16 08:13:58;;;;;;;16.25;7.90;;;;;;;14.68;100.00;95655.06;5034219;28;20201;-72
2022/09/16 08:16:25;;;;;;;18.38;7.88;;;;;;;14.64;100.00;95659.97;5036835;28;20197;-72
2022/09/16 08:18:54;;;;;;;14.55;7.32;;;;;;;14.54;100.00;95658.84;5037714;28;20217;-72
2022/09/16 08:21:22;;;;;;;15.55;7.57;;;;;;;14.53;100.00;95657.19;5037429;28;20208;-72
2022/09/16 08:23:50;;;;;;;16.45;6.75;;;;;;;14.94;100.00;95658.31;5036299;28;20209;-72
2022/09/16 08:26:18;;;;;;;12.77;6.35;;;;;;;15.32;100.00;95649.19;5036712;28;20201;-72
2022/09/16 08:28:47;;;;;;;14.80;7.82;;;;;;;15.05;100.00;95664.75;5036586;28;20236;-72
2022/09/16 08:31:14;;;;;;;13.73;7.50;;;;;;;14.91;100.00;95669.34;5036477;28;20255;-72
2022/09/16 08:33:41;;;;;;;12.23;6.70;;;;;;;14.89;100.00;95657.31;5033265;28;20980;-72
2022/09/16 08:36:13;;;;;;;20.13;8.00;;;;;;;15.19;100.00;95653.78;5038064;28;20661;-72
2022/09/16 08:38:40;;;;;;;16.95;7.40;;;;;;;15.37;100.00;95656.50;5037581;28;20299;-72
2022/09/16 08:41:24;;;;;;;12.18;6.20;;;;;;;15.66;100.00;95656.56;5035334;28;20717;-73
2022/09/16 08:44:02;;;;;;;16.35;7.75;;;;;;;15.50;100.00;95665.16;5034663;28;20968;-72
2022/09/16 08:46:35;;;;;;;11.55;5.78;;;;;;;15.70;100.00;95667.56;5035174;28;20653;-72
2022/09/16 08:49:13;;;;;;;13.75;6.72;;;;;;;15.78;100.00;95670.72;5040546;28;20237;-72
2022/09/16 08:51:40;;;;;;;15.00;6.72;;;;;;;15.62;100.00;95671.34;5041612;28;20207;-73
2022/09/16 08:54:12;;;;;;;7.88;4.90;;;;;;;15.40;100.00;95667.50;5039730;28;20232;-72
2022/09/16 08:56:42;;;;;;;11.98;4.70;;;;;;;15.02;100.00;95673.13;5040663;28;20200;-72
2022/09/16 08:59:15;;;;;;;7.07;4.40;;;;;;;14.67;100.00;95675.44;5040733;28;20772;-72
2022/09/16 09:01:48;;;;;;;7.60;4.38;;;;;;;14.86;100.00;95679.00;5041519;28;20231;-72
2022/09/16 09:04:15;;;;;;;6.60;3.40;;;;;;;14.53;100.00;95685.56;5038289;28;20197;-72
2022/09/16 09:06:53;;;;;;;9.35;3.72;;;;;;;14.36;100.00;95687.91;5043020;28;20569;-72
2022/09/16 09:09:40;;;;;;;6.07;3.80;;;;;;;14.21;100.00;95699.81;5041021;28;20224;-72
2022/09/16 09:12:14;;;;;;;7.30;3.65;;;;;;;14.13;100.00;95692.13;5038448;28;20193;-72
2022/09/16 09:14:56;;;;;;;7.07;3.50;;;;;;;13.98;100.00;95696.03;5038955;28;20238;-73
2022/09/16 09:17:35;;;;;;;5.97;3.35;;;;;;;13.97;100.00;95687.25;5039534;28;20801;-72
2022/09/16 09:20:12;;;;;;;6.07;3.67;;;;;;;13.81;100.00;95698.34;5039579;28;20240;-72
2022/09/16 09:22:56;;;;;;;6.03;3.42;;;;;;;13.88;100.00;95693.81;5039600;28;20202;-72
2022/09/16 09:25:34;;;;;;;6.93;3.85;;;;;;;13.66;100.00;95684.53;5040630;28;20205;-72
2022/09/16 09:28:22;;;;;;;6.00;3.33;;;;;;;13.72;100.00;95690.81;5040574;28;20570;-72
2022/09/16 09:30:59;;;;;;;8.43;3.28;;;;;;;13.37;100.00;95688.72;5041877;28;20316;-72
2022/09/16 09:33:35;;;;;;;5.72;3.00;;;;;;;13.28;100.00;95687.31;5040041;28;20201;-72
2022/09/16 09:36:21;;;;;;;5.50;3.25;;;;;;;13.45;100.00;95691.94;5038838;28;21070;-72
2022/09/16 09:39:00;;;;;;;5.18;3.13;;;;;;;13.43;100.00;95694.78;5041233;28;20221;-72
2022/09/16 09:41:32;;;;;;;4.53;3.03;;;;;;;13.22;100.00;95694.22;5040508;28;20694;-72
2022/09/16 09:44:17;;;;;;;9.30;2.70;;;;;;;13.15;100.00;95690.78;5039650;28;20197;-72
2022/09/16 09:46:48;;;;;;;5.78;2.70;;;;;;;13.02;100.00;95689.97;5039741;28;20307;-72
2022/09/16 09:49:19;;;;;;;6.03;2.33;;;;;;;12.90;100.00;95683.66;5039777;28;20237;-72
2022/09/16 09:51:54;;;;;;;3.63;2.22;;;;;;;12.90;100.00;95691.59;5040559;28;20208;-71
2022/09/16 09:54:28;;;;;;;4.30;2.53;;;;;;;12.89;100.00;95692.63;5039454;28;20205;-72
2022/09/16 09:56:58;;;;;;;7.82;2.60;;;;;;;12.95;100.00;95697.91;5038984;28;20229;-72
2022/09/16 09:59:32;;;;;;;6.07;3.03;;;;;;;12.94;100.00;95695.47;5039127;28;20709;-72
2022/09/16 10:02:00;;;;;;;4.60;2.83;;;;;;;12.88;100.00;95693.63;5039780;28;21149;-72
2022/09/16 10:04:27;;;;;;;4.88;2.70;;;;;;;12.87;100.00;95697.31;5037941;28;20201;-73
2022/09/16 10:06:55;;;;;;;4.70;2.80;;;;;;;13.01;100.00;95698.94;5037901;28;20205;-72
2022/09/16 10:09:23;;;;;;;7.20;3.00;;;;;;;13.08;100.00;95695.25;5037127;28;20217;-73
2022/09/16 10:11:51;;;;;;;5.70;2.80;;;;;;;13.10;100.00;95689.78;5038351;28;20205;-72
2022/09/16 10:14:30;;;;;;;5.53;3.30;;;;;;;13.27;100.00;95699.69;5038496;28;20209;-72
2022/09/16 10:17:01;;;;;;;5.90;3.17;;;;;;;13.40;100.00;95702.31;5038158;28;20262;-72
2022/09/16 10:19:31;;;;;;;5.05;3.03;;;;;;;13.40;100.00;95707.59;5038381;28;20851;-72
2022/09/16 10:22:09;;;;;;;8.57;5.90;;;;;;;13.36;100.00;95710.88;5038096;28;20651;-72
2022/09/16 10:24:38;;;;;;;5.28;2.97;;;;;;;13.16;100.00;95707.44;5037064;28;20201;-72
2022/09/16 10:27:19;;;;;;;4.03;2.60;;;;;;;13.41;100.00;95696.81;5038813;28;20201;-72
2022/09/16 10:29:47;;;;;;;7.35;4.50;;;;;;;13.06;100.00;95704.41;5037515;28;20316;-72
2022/09/16 10:32:17;;;;;;;6.00;3.35;;;;;;;13.22;100.00;95698.69;5036321;28;20201;-72
2022/09/16 10:34:45;;;;;;;7.28;3.15;;;;;;;13.36;100.00;95708.25;5037402;28;20612;-72
2022/09/16 10:37:17;;;;;;;10.20;4.10;;;;;;;13.27;100.00;95720.06;5035043;28;20255;-72
2022/09/16 10:39:50;;;;;;;5.82;3.70;;;;;;;13.12;100.00;95711.53;5037099;28;20693;-72
2022/09/16 10:42:19;;;;;;;4.32;2.85;;;;;;;13.29;100.00;95710.91;5037084;28;20201;-72
2022/09/16 10:44:50;;;;;;;3.10;2.15;;;;;;;13.39;100.00;95698.88;5037167;28;20205;-74
2022/09/16 10:47:20;;;;;;;3.33;2.30;;;;;;;13.62;100.00;95693.94;5037272;28;20198;-74
2022/09/16 10:49:49;;;;;;;3.50;2.20;;;;;;;13.66;100.00;95689.84;5036394;28;20681;-73
2022/09/16 10:52:17;;;;;;;5.28;3.72;;;;;;;13.65;100.00;95690.03;5036626;28;20205;-73
2022/09/16 10:54:44;;;;;;;4.57;3.03;;;;;;;13.76;100.00;95690.22;5035909;28;20205;-74
2022/09/16 10:57:27;;;;;;;5.55;3.15;;;;;;;13.77;100.00;95694.50;5037433;28;20201;-74
2022/09/16 11:00:08;;;;;;;5.35;3.67;;;;;;;14.01;100.00;95691.13;5037390;28;20213;-74
2022/09/16 11:02:57;;;;;;;3.70;2.60;;;;;;;14.07;100.00;95687.63;5036055;28;20201;-73
2022/09/16 11:05:32;;;;;;;3.20;2.53;;;;;;;14.07;100.00;95692.94;5037138;28;20197;-73
2022/09/16 11:08:06;;;;;;;4.13;2.13;;;;;;;14.17;100.00;95690.66;5036857;28;20220;-73
2022/09/16 11:10:42;;;;;;;4.30;2.38;;;;;;;14.27;100.00;95683.09;5035969;28;20197;-74
2022/09/16 11:13:33;;;;;;;3.17;2.10;;;;;;;14.44;100.00;95681.53;5035966;28;20200;-75
2022/09/16 11:16:13;;;;;;;4.78;3.60;;;;;;;14.52;100.00;95684.72;5023630;28;20301;-74
2022/09/16 11:18:50;;;;;;;6.60;3.10;;;;;;;14.70;100.00;95690.13;5036192;28;20717;-73
2022/09/16 11:21:31;;;;;;;4.45;3.05;;;;;;;14.55;100.00;95683.50;5036540;28;20236;-76
2022/09/16 11:24:14;;;;;;;2.38;1.77;;;;;;;14.70;100.00;95692.75;5036074;28;21008;-74
2022/09/16 11:26:49;;;;;;;3.67;2.33;;;;;;;14.66;100.00;95697.72;5036114;28;20208;-75
2022/09/16 11:29:37;;;;;;;4.15;2.30;;;;;;;14.60;100.00;95707.53;5036494;28;20217;-76
2022/09/16 11:32:18;;;;;;;5.75;3.15;;;;;;;14.54;100.00;95701.25;5036071;28;20205;-73
2022/09/16 11:35:08;;;;;;;4.45;2.83;;;;;;;14.33;100.00;95709.53;5036220;28;20969;-73